sensor_id;sensor_type;location;lat;lon;timestamp;P1;durP1;ratioP1;P2;durP2;ratioP2
52838;SDS011;39219;53.678;9.856;2023-07-20T00:02:01;7.40;;;4.32;;
52838;SDS011;39219;53.678;9.856;2023-07-20T00:04:27;7.75;;;4.05;;
52838;SDS011;39219;53.678;9.856;2023-07-20T00:06:54;7.68;;;4.20;;
52838;SDS011;39219;53.678;9.856;2023-07-20T00:09:20;5.40;;;3.70;;
52838;SDS011;39219;53.678;9.856;2023-07-20T00:11:49;6.63;;;3.95;;
52838;SDS011;39219;53.678;9.856;2023-07-20T00:14:16;8.65;;;4.15;;
52838;SDS011;39219;53.678;9.856;2023-07-20T00:16:43;8.52;;;4.60;;
52838;SDS011;39219;53.678;9.856;2023-07-20T00:19:09;7.40;;;4.13;;
52838;SDS011;39219;53.678;9.856;2023-07-20T00:21:36;6.07;;;4.10;;
52838;SDS011;39219;53.678;9.856;2023-07-20T00:24:02;7.28;;;4.22;;
52838;SDS011;39219;53.678;9.856;2023-07-20T00:26:29;10.38;;;4.28;;
52838;SDS011;39219;53.678;9.856;2023-07-20T00:28:56;7.60;;;4.22;;
52838;SDS011;39219;53.678;9.856;2023-07-20T00:31:23;8.82;;;4.55;;
52838;SDS011;39219;53.678;9.856;2023-07-20T00:33:49;6.78;;;4.60;;
52838;SDS011;39219;53.678;9.856;2023-07-20T00:36:15;6.78;;;4.25;;
52838;SDS011;39219;53.678;9.856;2023-07-20T00:38:42;7.70;;;4.55;;
52838;SDS011;39219;53.678;9.856;2023-07-20T00:41:08;9.45;;;4.80;;
52838;SDS011;39219;53.678;9.856;2023-07-20T00:43:34;8.52;;;4.82;;
52838;SDS011;39219;53.678;9.856;2023-07-20T00:46:02;9.43;;;4.78;;
52838;SDS011;39219;53.678;9.856;2023-07-20T00:48:28;8.65;;;4.70;;
52838;SDS011;39219;53.678;9.856;2023-07-20T00:50:55;8.07;;;5.40;;
52838;SDS011;39219;53.678;9.856;2023-07-20T00:53:21;7.22;;;4.70;;
52838;SDS011;39219;53.678;9.856;2023-07-20T00:55:47;8.95;;;4.35;;
52838;SDS011;39219;53.678;9.856;2023-07-20T00:58:14;12.25;;;5.28;;
52838;SDS011;39219;53.678;9.856;2023-07-20T01:00:40;10.57;;;5.10;;
52838;SDS011;39219;53.678;9.856;2023-07-20T01:03:08;7.60;;;5.00;;
52838;SDS011;39219;53.678;9.856;2023-07-20T01:05:36;9.15;;;5.30;;
52838;SDS011;39219;53.678;9.856;2023-07-20T01:08:07;9.90;;;5.30;;
52838;SDS011;39219;53.678;9.856;2023-07-20T01:10:36;9.60;;;5.05;;
52838;SDS011;39219;53.678;9.856;2023-07-20T01:13:06;8.63;;;4.93;;
52838;SDS011;39219;53.678;9.856;2023-07-20T01:15:33;8.95;;;5.15;;
52838;SDS011;39219;53.678;9.856;2023-07-20T01:17:59;10.77;;;5.43;;
52838;SDS011;39219;53.678;9.856;2023-07-20T01:20:27;11.73;;;5.82;;
52838;SDS011;39219;53.678;9.856;2023-07-20T01:23:00;12.02;;;5.80;;
52838;SDS011;39219;53.678;9.856;2023-07-20T01:25:34;10.48;;;5.55;;
52838;SDS011;39219;53.678;9.856;2023-07-20T01:28:25;9.55;;;5.43;;
52838;SDS011;39219;53.678;9.856;2023-07-20T01:30:56;10.40;;;5.82;;
52838;SDS011;39219;53.678;9.856;2023-07-20T01:33:26;8.85;;;5.70;;
52838;SDS011;39219;53.678;9.856;2023-07-20T01:35:54;10.68;;;5.57;;
52838;SDS011;39219;53.678;9.856;2023-07-20T01:38:21;11.98;;;6.07;;
52838;SDS011;39219;53.678;9.856;2023-07-20T01:40:48;11.73;;;5.78;;
52838;SDS011;39219;53.678;9.856;2023-07-20T01:43:15;10.10;;;5.78;;
52838;SDS011;39219;53.678;9.856;2023-07-20T01:45:42;11.60;;;5.88;;
52838;SDS011;39219;53.678;9.856;2023-07-20T01:48:08;11.10;;;5.40;;
52838;SDS011;39219;53.678;9.856;2023-07-20T01:50:36;9.77;;;5.68;;
52838;SDS011;39219;53.678;9.856;2023-07-20T01:53:02;11.20;;;6.35;;
52838;SDS011;39219;53.678;9.856;2023-07-20T01:55:28;9.82;;;5.60;;
52838;SDS011;39219;53.678;9.856;2023-07-20T01:57:55;12.85;;;6.57;;
52838;SDS011;39219;53.678;9.856;2023-07-20T02:00:21;12.32;;;6.03;;
52838;SDS011;39219;53.678;9.856;2023-07-20T02:02:49;9.38;;;6.28;;
52838;SDS011;39219;53.678;9.856;2023-07-20T02:05:15;12.07;;;6.43;;
52838;SDS011;39219;53.678;9.856;2023-07-20T02:07:43;11.50;;;6.65;;
52838;SDS011;39219;53.678;9.856;2023-07-20T02:10:09;12.00;;;6.35;;
52838;SDS011;39219;53.678;9.856;2023-07-20T02:12:36;10.98;;;6.45;;
52838;SDS011;39219;53.678;9.856;2023-07-20T02:15:02;11.07;;;6.60;;
52838;SDS011;39219;53.678;9.856;2023-07-20T02:17:29;11.05;;;6.30;;
52838;SDS011;39219;53.678;9.856;2023-07-20T02:19:55;11.20;;;6.75;;
52838;SDS011;39219;53.678;9.856;2023-07-20T02:22:22;13.70;;;7.30;;
52838;SDS011;39219;53.678;9.856;2023-07-20T02:24:50;11.07;;;6.60;;
52838;SDS011;39219;53.678;9.856;2023-07-20T02:27:16;12.75;;;7.03;;
52838;SDS011;39219;53.678;9.856;2023-07-20T02:29:43;12.18;;;7.38;;
52838;SDS011;39219;53.678;9.856;2023-07-20T02:32:09;13.45;;;7.07;;
52838;SDS011;39219;53.678;9.856;2023-07-20T02:34:35;12.88;;;7.15;;
52838;SDS011;39219;53.678;9.856;2023-07-20T02:37:02;12.38;;;7.28;;
52838;SDS011;39219;53.678;9.856;2023-07-20T02:39:29;14.18;;;6.82;;
52838;SDS011;39219;53.678;9.856;2023-07-20T02:41:56;13.18;;;7.47;;
52838;SDS011;39219;53.678;9.856;2023-07-20T02:44:23;12.63;;;7.50;;
52838;SDS011;39219;53.678;9.856;2023-07-20T02:46:49;13.48;;;7.20;;
52838;SDS011;39219;53.678;9.856;2023-07-20T02:49:15;12.60;;;7.25;;
52838;SDS011;39219;53.678;9.856;2023-07-20T02:51:41;15.48;;;7.95;;
52838;SDS011;39219;53.678;9.856;2023-07-20T02:54:07;12.88;;;7.63;;
52838;SDS011;39219;53.678;9.856;2023-07-20T02:56:33;14.57;;;8.00;;
52838;SDS011;39219;53.678;9.856;2023-07-20T02:59:02;12.23;;;7.60;;
52838;SDS011;39219;53.678;9.856;2023-07-20T03:01:28;12.32;;;7.57;;
52838;SDS011;39219;53.678;9.856;2023-07-20T03:03:55;13.57;;;7.70;;
52838;SDS011;39219;53.678;9.856;2023-07-20T03:06:21;13.63;;;7.65;;
52838;SDS011;39219;53.678;9.856;2023-07-20T03:08:47;12.40;;;8.02;;
52838;SDS011;39219;53.678;9.856;2023-07-20T03:11:17;13.75;;;7.68;;
52838;SDS011;39219;53.678;9.856;2023-07-20T03:13:43;12.38;;;7.50;;
52838;SDS011;39219;53.678;9.856;2023-07-20T03:16:11;14.45;;;7.82;;
52838;SDS011;39219;53.678;9.856;2023-07-20T03:18:40;11.55;;;7.22;;
52838;SDS011;39219;53.678;9.856;2023-07-20T03:21:07;12.38;;;7.10;;
52838;SDS011;39219;53.678;9.856;2023-07-20T03:23:33;13.38;;;6.90;;
52838;SDS011;39219;53.678;9.856;2023-07-20T03:26:00;10.55;;;6.60;;
52838;SDS011;39219;53.678;9.856;2023-07-20T03:28:26;10.10;;;6.18;;
52838;SDS011;39219;53.678;9.856;2023-07-20T03:30:53;10.15;;;6.05;;
52838;SDS011;39219;53.678;9.856;2023-07-20T03:33:20;9.55;;;6.30;;
52838;SDS011;39219;53.678;9.856;2023-07-20T03:35:47;11.52;;;6.32;;
52838;SDS011;39219;53.678;9.856;2023-07-20T03:38:13;14.27;;;6.53;;
52838;SDS011;39219;53.678;9.856;2023-07-20T03:40:39;11.35;;;6.53;;
52838;SDS011;39219;53.678;9.856;2023-07-20T03:43:14;10.15;;;6.57;;
52838;SDS011;39219;53.678;9.856;2023-07-20T03:45:40;10.27;;;6.45;;
52838;SDS011;39219;53.678;9.856;2023-07-20T03:48:07;11.40;;;6.43;;
52838;SDS011;39219;53.678;9.856;2023-07-20T03:50:34;9.23;;;5.90;;
52838;SDS011;39219;53.678;9.856;2023-07-20T03:53:01;9.70;;;5.63;;
52838;SDS011;39219;53.678;9.856;2023-07-20T03:55:27;9.98;;;5.90;;
52838;SDS011;39219;53.678;9.856;2023-07-20T03:57:53;9.32;;;5.75;;
52838;SDS011;39219;53.678;9.856;2023-07-20T04:00:20;10.32;;;5.80;;
52838;SDS011;39219;53.678;9.856;2023-07-20T04:02:46;10.63;;;5.65;;
52838;SDS011;39219;53.678;9.856;2023-07-20T04:05:12;10.48;;;6.35;;
52838;SDS011;39219;53.678;9.856;2023-07-20T04:07:40;10.52;;;5.72;;
52838;SDS011;39219;53.678;9.856;2023-07-20T04:10:07;9.57;;;5.78;;
52838;SDS011;39219;53.678;9.856;2023-07-20T04:12:34;9.45;;;5.75;;
52838;SDS011;39219;53.678;9.856;2023-07-20T04:15:00;8.13;;;5.30;;
52838;SDS011;39219;53.678;9.856;2023-07-20T04:17:29;7.97;;;5.05;;
52838;SDS011;39219;53.678;9.856;2023-07-20T04:19:55;9.18;;;5.22;;
52838;SDS011;39219;53.678;9.856;2023-07-20T04:22:21;8.20;;;4.97;;
52838;SDS011;39219;53.678;9.856;2023-07-20T04:24:49;11.63;;;5.20;;
52838;SDS011;39219;53.678;9.856;2023-07-20T04:27:15;8.55;;;4.93;;
52838;SDS011;39219;53.678;9.856;2023-07-20T04:29:42;8.30;;;4.90;;
52838;SDS011;39219;53.678;9.856;2023-07-20T04:32:08;7.28;;;4.65;;
52838;SDS011;39219;53.678;9.856;2023-07-20T04:34:34;9.25;;;5.10;;
52838;SDS011;39219;53.678;9.856;2023-07-20T04:37:02;9.65;;;5.15;;
52838;SDS011;39219;53.678;9.856;2023-07-20T04:39:28;8.02;;;4.68;;
52838;SDS011;39219;53.678;9.856;2023-07-20T04:41:56;8.68;;;5.10;;
52838;SDS011;39219;53.678;9.856;2023-07-20T04:44:23;9.43;;;5.30;;
52838;SDS011;39219;53.678;9.856;2023-07-20T04:46:49;7.53;;;4.60;;
52838;SDS011;39219;53.678;9.856;2023-07-20T04:49:15;7.47;;;4.97;;
52838;SDS011;39219;53.678;9.856;2023-07-20T04:51:42;8.43;;;5.10;;
52838;SDS011;39219;53.678;9.856;2023-07-20T04:54:08;9.77;;;4.80;;
52838;SDS011;39219;53.678;9.856;2023-07-20T04:56:34;9.32;;;5.00;;
52838;SDS011;39219;53.678;9.856;2023-07-20T04:59:02;8.15;;;5.03;;
52838;SDS011;39219;53.678;9.856;2023-07-20T05:01:28;8.43;;;4.95;;
52838;SDS011;39219;53.678;9.856;2023-07-20T05:03:55;8.98;;;4.70;;
52838;SDS011;39219;53.678;9.856;2023-07-20T05:06:21;8.68;;;4.80;;
52838;SDS011;39219;53.678;9.856;2023-07-20T05:08:47;8.32;;;5.03;;
52838;SDS011;39219;53.678;9.856;2023-07-20T05:11:13;8.40;;;4.47;;
52838;SDS011;39219;53.678;9.856;2023-07-20T05:13:40;8.85;;;4.60;;
52838;SDS011;39219;53.678;9.856;2023-07-20T05:16:08;9.55;;;5.03;;
52838;SDS011;39219;53.678;9.856;2023-07-20T05:18:34;8.30;;;4.30;;
52838;SDS011;39219;53.678;9.856;2023-07-20T05:21:01;8.13;;;3.92;;
52838;SDS011;39219;53.678;9.856;2023-07-20T05:23:27;7.45;;;3.38;;
52838;SDS011;39219;53.678;9.856;2023-07-20T05:25:54;7.28;;;3.30;;
52838;SDS011;39219;53.678;9.856;2023-07-20T05:28:21;6.35;;;3.20;;
52838;SDS011;39219;53.678;9.856;2023-07-20T05:30:47;6.07;;;3.22;;
52838;SDS011;39219;53.678;9.856;2023-07-20T05:33:15;6.43;;;2.80;;
52838;SDS011;39219;53.678;9.856;2023-07-20T05:35:41;4.68;;;2.47;;
52838;SDS011;39219;53.678;9.856;2023-07-20T05:38:07;4.63;;;2.40;;
52838;SDS011;39219;53.678;9.856;2023-07-20T05:40:37;5.00;;;2.15;;
52838;SDS011;39219;53.678;9.856;2023-07-20T05:43:03;4.40;;;1.92;;
52838;SDS011;39219;53.678;9.856;2023-07-20T05:45:29;2.92;;;1.95;;
52838;SDS011;39219;53.678;9.856;2023-07-20T05:47:56;2.17;;;1.50;;
52838;SDS011;39219;53.678;9.856;2023-07-20T05:50:23;4.57;;;1.60;;
52838;SDS011;39219;53.678;9.856;2023-07-20T05:52:52;2.75;;;1.75;;
52838;SDS011;39219;53.678;9.856;2023-07-20T05:55:18;2.90;;;1.52;;
52838;SDS011;39219;53.678;9.856;2023-07-20T05:57:44;2.53;;;1.70;;
52838;SDS011;39219;53.678;9.856;2023-07-20T06:00:11;2.72;;;1.25;;
52838;SDS011;39219;53.678;9.856;2023-07-20T06:02:38;2.67;;;1.50;;
52838;SDS011;39219;53.678;9.856;2023-07-20T06:05:05;3.60;;;1.60;;
52838;SDS011;39219;53.678;9.856;2023-07-20T06:07:33;5.00;;;1.60;;
52838;SDS011;39219;53.678;9.856;2023-07-20T06:09:59;1.30;;;1.20;;
52838;SDS011;39219;53.678;9.856;2023-07-20T06:12:26;2.83;;;1.38;;
52838;SDS011;39219;53.678;9.856;2023-07-20T06:14:52;3.08;;;1.42;;
52838;SDS011;39219;53.678;9.856;2023-07-20T06:17:18;2.85;;;1.00;;
52838;SDS011;39219;53.678;9.856;2023-07-20T06:19:45;2.47;;;1.40;;
52838;SDS011;39219;53.678;9.856;2023-07-20T06:22:11;8.35;;;1.45;;
52838;SDS011;39219;53.678;9.856;2023-07-20T06:24:38;2.28;;;1.25;;
52838;SDS011;39219;53.678;9.856;2023-07-20T06:27:05;3.08;;;1.20;;
52838;SDS011;39219;53.678;9.856;2023-07-20T06:29:31;2.58;;;0.95;;
52838;SDS011;39219;53.678;9.856;2023-07-20T06:31:58;3.67;;;1.15;;
52838;SDS011;39219;53.678;9.856;2023-07-20T06:34:24;2.40;;;0.93;;
52838;SDS011;39219;53.678;9.856;2023-07-20T06:36:51;2.63;;;0.90;;
52838;SDS011;39219;53.678;9.856;2023-07-20T06:39:17;2.90;;;1.00;;
52838;SDS011;39219;53.678;9.856;2023-07-20T06:41:44;1.80;;;0.70;;
52838;SDS011;39219;53.678;9.856;2023-07-20T06:44:11;2.40;;;0.88;;
52838;SDS011;39219;53.678;9.856;2023-07-20T06:46:37;1.67;;;0.65;;
52838;SDS011;39219;53.678;9.856;2023-07-20T06:49:05;2.25;;;0.82;;
52838;SDS011;39219;53.678;9.856;2023-07-20T06:51:32;1.67;;;0.90;;
52838;SDS011;39219;53.678;9.856;2023-07-20T06:53:58;2.65;;;1.00;;
52838;SDS011;39219;53.678;9.856;2023-07-20T06:56:24;1.45;;;0.80;;
52838;SDS011;39219;53.678;9.856;2023-07-20T06:58:52;3.05;;;0.90;;
52838;SDS011;39219;53.678;9.856;2023-07-20T07:01:18;2.40;;;0.75;;
52838;SDS011;39219;53.678;9.856;2023-07-20T07:03:46;2.25;;;1.00;;
52838;SDS011;39219;53.678;9.856;2023-07-20T07:06:12;2.55;;;1.00;;
52838;SDS011;39219;53.678;9.856;2023-07-20T07:08:38;2.17;;;0.90;;
52838;SDS011;39219;53.678;9.856;2023-07-20T07:11:04;3.05;;;0.80;;
52838;SDS011;39219;53.678;9.856;2023-07-20T07:13:31;2.72;;;1.10;;
52838;SDS011;39219;53.678;9.856;2023-07-20T07:15:59;2.92;;;1.50;;
52838;SDS011;39219;53.678;9.856;2023-07-20T07:18:25;2.25;;;1.23;;
52838;SDS011;39219;53.678;9.856;2023-07-20T07:20:51;2.70;;;1.55;;
52838;SDS011;39219;53.678;9.856;2023-07-20T07:23:18;3.67;;;1.63;;
52838;SDS011;39219;53.678;9.856;2023-07-20T07:25:44;2.92;;;1.50;;
52838;SDS011;39219;53.678;9.856;2023-07-20T07:28:11;6.45;;;1.67;;
52838;SDS011;39219;53.678;9.856;2023-07-20T07:30:37;2.00;;;1.40;;
52838;SDS011;39219;53.678;9.856;2023-07-20T07:33:05;3.20;;;1.60;;
52838;SDS011;39219;53.678;9.856;2023-07-20T07:35:31;4.45;;;1.55;;
52838;SDS011;39219;53.678;9.856;2023-07-20T07:37:57;3.30;;;1.58;;
52838;SDS011;39219;53.678;9.856;2023-07-20T07:40:24;2.67;;;1.42;;
52838;SDS011;39219;53.678;9.856;2023-07-20T07:42:50;3.58;;;1.60;;
52838;SDS011;39219;53.678;9.856;2023-07-20T07:45:16;3.03;;;1.60;;
52838;SDS011;39219;53.678;9.856;2023-07-20T07:47:42;4.13;;;1.92;;
52838;SDS011;39219;53.678;9.856;2023-07-20T07:50:10;4.57;;;2.13;;
52838;SDS011;39219;53.678;9.856;2023-07-20T07:52:37;4.57;;;1.88;;
52838;SDS011;39219;53.678;9.856;2023-07-20T07:55:03;5.90;;;2.00;;
52838;SDS011;39219;53.678;9.856;2023-07-20T07:57:30;3.67;;;2.33;;
52838;SDS011;39219;53.678;9.856;2023-07-20T07:59:56;4.10;;;1.80;;
52838;SDS011;39219;53.678;9.856;2023-07-20T08:02:22;4.45;;;2.05;;
52838;SDS011;39219;53.678;9.856;2023-07-20T08:04:48;4.35;;;1.83;;
52838;SDS011;39219;53.678;9.856;2023-07-20T08:07:18;5.88;;;2.00;;
52838;SDS011;39219;53.678;9.856;2023-07-20T08:09:44;5.60;;;1.83;;
52838;SDS011;39219;53.678;9.856;2023-07-20T08:12:11;4.90;;;1.90;;
52838;SDS011;39219;53.678;9.856;2023-07-20T08:14:38;4.65;;;1.75;;
52838;SDS011;39219;53.678;9.856;2023-07-20T08:17:04;6.55;;;1.90;;
52838;SDS011;39219;53.678;9.856;2023-07-20T08:19:31;6.55;;;1.70;;
52838;SDS011;39219;53.678;9.856;2023-07-20T08:21:57;5.38;;;1.80;;
52838;SDS011;39219;53.678;9.856;2023-07-20T08:24:25;3.22;;;1.38;;
52838;SDS011;39219;53.678;9.856;2023-07-20T08:26:51;5.88;;;2.00;;
52838;SDS011;39219;53.678;9.856;2023-07-20T08:29:17;3.75;;;1.52;;
52838;SDS011;39219;53.678;9.856;2023-07-20T08:31:43;5.72;;;1.70;;
52838;SDS011;39219;53.678;9.856;2023-07-20T08:34:10;3.95;;;1.58;;
52838;SDS011;39219;53.678;9.856;2023-07-20T08:36:37;2.90;;;1.55;;
52838;SDS011;39219;53.678;9.856;2023-07-20T08:39:03;2.97;;;1.30;;
52838;SDS011;39219;53.678;9.856;2023-07-20T08:41:31;3.95;;;1.50;;
52838;SDS011;39219;53.678;9.856;2023-07-20T08:43:57;4.00;;;1.30;;
52838;SDS011;39219;53.678;9.856;2023-07-20T08:46:24;3.85;;;1.05;;
52838;SDS011;39219;53.678;9.856;2023-07-20T08:48:52;4.80;;;1.70;;
52838;SDS011;39219;53.678;9.856;2023-07-20T08:51:19;2.35;;;1.10;;
52838;SDS011;39219;53.678;9.856;2023-07-20T08:53:45;3.58;;;1.15;;
52838;SDS011;39219;53.678;9.856;2023-07-20T08:56:13;5.40;;;1.30;;
52838;SDS011;39219;53.678;9.856;2023-07-20T08:58:42;4.82;;;1.17;;
52838;SDS011;39219;53.678;9.856;2023-07-20T09:01:10;2.05;;;1.10;;
52838;SDS011;39219;53.678;9.856;2023-07-20T09:03:36;5.70;;;2.15;;
52838;SDS011;39219;53.678;9.856;2023-07-20T09:06:04;6.85;;;1.60;;
52838;SDS011;39219;53.678;9.856;2023-07-20T09:08:30;4.57;;;1.58;;
52838;SDS011;39219;53.678;9.856;2023-07-20T09:10:57;3.42;;;1.40;;
52838;SDS011;39219;53.678;9.856;2023-07-20T09:13:24;6.60;;;1.85;;
52838;SDS011;39219;53.678;9.856;2023-07-20T09:15:54;3.83;;;1.40;;
52838;SDS011;39219;53.678;9.856;2023-07-20T09:18:23;4.10;;;1.45;;
52838;SDS011;39219;53.678;9.856;2023-07-20T09:20:50;4.60;;;1.63;;
52838;SDS011;39219;53.678;9.856;2023-07-20T09:23:16;3.70;;;1.38;;
52838;SDS011;39219;53.678;9.856;2023-07-20T09:25:43;5.35;;;1.33;;
52838;SDS011;39219;53.678;9.856;2023-07-20T09:28:11;3.47;;;1.30;;
52838;SDS011;39219;53.678;9.856;2023-07-20T09:30:37;3.17;;;1.20;;
52838;SDS011;39219;53.678;9.856;2023-07-20T09:33:05;3.53;;;1.08;;
52838;SDS011;39219;53.678;9.856;2023-07-20T09:35:31;2.55;;;0.93;;
52838;SDS011;39219;53.678;9.856;2023-07-20T09:37:58;3.03;;;1.00;;
52838;SDS011;39219;53.678;9.856;2023-07-20T09:40:25;3.45;;;0.90;;
52838;SDS011;39219;53.678;9.856;2023-07-20T09:42:52;3.38;;;0.95;;
52838;SDS011;39219;53.678;9.856;2023-07-20T09:45:25;2.47;;;0.82;;
52838;SDS011;39219;53.678;9.856;2023-07-20T09:47:54;4.28;;;1.13;;
52838;SDS011;39219;53.678;9.856;2023-07-20T09:50:30;3.03;;;1.20;;
52838;SDS011;39219;53.678;9.856;2023-07-20T09:52:56;2.55;;;0.88;;
52838;SDS011;39219;53.678;9.856;2023-07-20T09:55:23;2.92;;;0.60;;
52838;SDS011;39219;53.678;9.856;2023-07-20T09:57:50;2.28;;;0.80;;
52838;SDS011;39219;53.678;9.856;2023-07-20T10:00:18;3.83;;;0.60;;
52838;SDS011;39219;53.678;9.856;2023-07-20T10:02:45;3.42;;;0.73;;
52838;SDS011;39219;53.678;9.856;2023-07-20T10:05:12;3.45;;;0.70;;
52838;SDS011;39219;53.678;9.856;2023-07-20T10:07:43;1.85;;;0.60;;
52838;SDS011;39219;53.678;9.856;2023-07-20T10:10:09;3.53;;;0.73;;
52838;SDS011;39219;53.678;9.856;2023-07-20T10:12:36;2.25;;;0.80;;
52838;SDS011;39219;53.678;9.856;2023-07-20T10:15:06;4.40;;;1.10;;
52838;SDS011;39219;53.678;9.856;2023-07-20T10:17:35;3.65;;;0.90;;
52838;SDS011;39219;53.678;9.856;2023-07-20T10:20:01;3.45;;;1.02;;
52838;SDS011;39219;53.678;9.856;2023-07-20T10:22:31;3.40;;;1.25;;
52838;SDS011;39219;53.678;9.856;2023-07-20T10:25:02;5.22;;;1.00;;
52838;SDS011;39219;53.678;9.856;2023-07-20T10:27:29;3.40;;;1.10;;
52838;SDS011;39219;53.678;9.856;2023-07-20T10:29:56;3.33;;;1.00;;
52838;SDS011;39219;53.678;9.856;2023-07-20T10:32:24;4.22;;;1.00;;
52838;SDS011;39219;53.678;9.856;2023-07-20T10:34:50;1.98;;;1.10;;
52838;SDS011;39219;53.678;9.856;2023-07-20T10:39:58;4.03;;;0.88;;
52838;SDS011;39219;53.678;9.856;2023-07-20T10:42:48;3.15;;;1.05;;
52838;SDS011;39219;53.678;9.856;2023-07-20T10:45:14;3.45;;;0.90;;
52838;SDS011;39219;53.678;9.856;2023-07-20T10:47:45;5.15;;;0.82;;
52838;SDS011;39219;53.678;9.856;2023-07-20T10:50:11;3.53;;;0.80;;
52838;SDS011;39219;53.678;9.856;2023-07-20T10:52:38;1.63;;;0.90;;
52838;SDS011;39219;53.678;9.856;2023-07-20T10:55:14;2.30;;;1.00;;
52838;SDS011;39219;53.678;9.856;2023-07-20T10:57:40;2.25;;;0.85;;
52838;SDS011;39219;53.678;9.856;2023-07-20T11:00:09;3.72;;;0.85;;
52838;SDS011;39219;53.678;9.856;2023-07-20T11:02:41;6.32;;;1.15;;
52838;SDS011;39219;53.678;9.856;2023-07-20T11:05:07;3.83;;;1.17;;
52838;SDS011;39219;53.678;9.856;2023-07-20T11:07:54;6.05;;;1.60;;
52838;SDS011;39219;53.678;9.856;2023-07-20T11:10:20;4.40;;;1.40;;
52838;SDS011;39219;53.678;9.856;2023-07-20T11:15:33;3.00;;;0.80;;
52838;SDS011;39219;53.678;9.856;2023-07-20T11:18:11;3.70;;;0.65;;
52838;SDS011;39219;53.678;9.856;2023-07-20T11:20:37;3.30;;;0.70;;
52838;SDS011;39219;53.678;9.856;2023-07-20T11:23:04;1.35;;;0.60;;
52838;SDS011;39219;53.678;9.856;2023-07-20T11:25:35;2.63;;;0.90;;
52838;SDS011;39219;53.678;9.856;2023-07-20T11:28:02;3.10;;;0.82;;
52838;SDS011;39219;53.678;9.856;2023-07-20T11:30:33;3.25;;;0.80;;
52838;SDS011;39219;53.678;9.856;2023-07-20T11:33:00;1.85;;;0.60;;
52838;SDS011;39219;53.678;9.856;2023-07-20T11:35:26;3.83;;;1.02;;
52838;SDS011;39219;53.678;9.856;2023-07-20T11:37:52;2.38;;;0.68;;
52838;SDS011;39219;53.678;9.856;2023-07-20T11:40:19;3.30;;;0.80;;
52838;SDS011;39219;53.678;9.856;2023-07-20T11:42:45;3.40;;;0.77;;
52838;SDS011;39219;53.678;9.856;2023-07-20T11:45:11;1.75;;;0.68;;
52838;SDS011;39219;53.678;9.856;2023-07-20T11:47:40;3.40;;;1.00;;
52838;SDS011;39219;53.678;9.856;2023-07-20T11:50:07;4.30;;;1.00;;
52838;SDS011;39219;53.678;9.856;2023-07-20T11:52:34;6.13;;;0.90;;
52838;SDS011;39219;53.678;9.856;2023-07-20T11:55:01;4.45;;;1.23;;
52838;SDS011;39219;53.678;9.856;2023-07-20T11:57:27;2.65;;;1.05;;
52838;SDS011;39219;53.678;9.856;2023-07-20T11:59:53;3.78;;;1.35;;
52838;SDS011;39219;53.678;9.856;2023-07-20T12:02:22;4.30;;;1.40;;
52838;SDS011;39219;53.678;9.856;2023-07-20T12:04:51;4.55;;;1.40;;
52838;SDS011;39219;53.678;9.856;2023-07-20T12:07:18;7.10;;;1.33;;
52838;SDS011;39219;53.678;9.856;2023-07-20T12:09:44;5.80;;;1.30;;
52838;SDS011;39219;53.678;9.856;2023-07-20T12:12:10;7.93;;;1.90;;
52838;SDS011;39219;53.678;9.856;2023-07-20T12:14:37;5.22;;;1.50;;
52838;SDS011;39219;53.678;9.856;2023-07-20T12:17:03;5.70;;;1.35;;
52838;SDS011;39219;53.678;9.856;2023-07-20T12:19:30;3.35;;;1.23;;
52838;SDS011;39219;53.678;9.856;2023-07-20T12:21:59;2.63;;;1.27;;
52838;SDS011;39219;53.678;9.856;2023-07-20T12:24:26;6.85;;;1.38;;
52838;SDS011;39219;53.678;9.856;2023-07-20T12:26:55;5.88;;;1.48;;
52838;SDS011;39219;53.678;9.856;2023-07-20T12:29:21;4.28;;;1.20;;
52838;SDS011;39219;53.678;9.856;2023-07-20T12:31:48;2.58;;;0.95;;
52838;SDS011;39219;53.678;9.856;2023-07-20T12:34:14;3.88;;;1.30;;
52838;SDS011;39219;53.678;9.856;2023-07-20T12:36:40;2.53;;;0.90;;
52838;SDS011;39219;53.678;9.856;2023-07-20T12:39:08;2.67;;;0.98;;
52838;SDS011;39219;53.678;9.856;2023-07-20T12:41:34;4.05;;;1.20;;
52838;SDS011;39219;53.678;9.856;2023-07-20T12:44:01;5.18;;;0.93;;
52838;SDS011;39219;53.678;9.856;2023-07-20T12:46:27;4.18;;;1.15;;
52838;SDS011;39219;53.678;9.856;2023-07-20T12:48:54;5.40;;;1.13;;
52838;SDS011;39219;53.678;9.856;2023-07-20T12:51:20;2.47;;;1.10;;
52838;SDS011;39219;53.678;9.856;2023-07-20T12:53:46;1.60;;;0.82;;
52838;SDS011;39219;53.678;9.856;2023-07-20T12:56:14;4.43;;;1.15;;
52838;SDS011;39219;53.678;9.856;2023-07-20T12:58:40;3.55;;;1.00;;
52838;SDS011;39219;53.678;9.856;2023-07-20T13:01:07;2.50;;;0.77;;
52838;SDS011;39219;53.678;9.856;2023-07-20T13:03:33;2.72;;;0.65;;
52838;SDS011;39219;53.678;9.856;2023-07-20T13:06:00;5.03;;;1.27;;
52838;SDS011;39219;53.678;9.856;2023-07-20T13:08:26;5.05;;;1.08;;
52838;SDS011;39219;53.678;9.856;2023-07-20T13:10:52;3.72;;;1.00;;
52838;SDS011;39219;53.678;9.856;2023-07-20T13:13:20;2.00;;;0.75;;
52838;SDS011;39219;53.678;9.856;2023-07-20T13:15:46;4.95;;;0.90;;
52838;SDS011;39219;53.678;9.856;2023-07-20T13:18:13;4.18;;;1.17;;
52838;SDS011;39219;53.678;9.856;2023-07-20T13:20:39;2.25;;;0.82;;
52838;SDS011;39219;53.678;9.856;2023-07-20T13:23:05;3.50;;;0.95;;
52838;SDS011;39219;53.678;9.856;2023-07-20T13:25:32;3.88;;;1.27;;
52838;SDS011;39219;53.678;9.856;2023-07-20T13:27:59;2.58;;;0.80;;
52838;SDS011;39219;53.678;9.856;2023-07-20T13:30:26;4.47;;;1.08;;
52838;SDS011;39219;53.678;9.856;2023-07-20T13:32:52;3.28;;;1.10;;
52838;SDS011;39219;53.678;9.856;2023-07-20T13:35:19;1.73;;;0.85;;
52838;SDS011;39219;53.678;9.856;2023-07-20T13:37:45;2.50;;;0.98;;
52838;SDS011;39219;53.678;9.856;2023-07-20T13:40:12;1.40;;;0.80;;
52838;SDS011;39219;53.678;9.856;2023-07-20T13:42:38;3.20;;;0.70;;
52838;SDS011;39219;53.678;9.856;2023-07-20T13:45:05;4.97;;;1.08;;
52838;SDS011;39219;53.678;9.856;2023-07-20T13:47:33;10.85;;;1.13;;
52838;SDS011;39219;53.678;9.856;2023-07-20T13:49:59;1.40;;;0.70;;
52838;SDS011;39219;53.678;9.856;2023-07-20T13:52:26;3.88;;;1.20;;
52838;SDS011;39219;53.678;9.856;2023-07-20T13:54:52;3.10;;;0.90;;
52838;SDS011;39219;53.678;9.856;2023-07-20T13:57:18;3.75;;;0.90;;
52838;SDS011;39219;53.678;9.856;2023-07-20T13:59:45;5.97;;;1.08;;
52838;SDS011;39219;53.678;9.856;2023-07-20T14:02:11;2.40;;;1.00;;
52838;SDS011;39219;53.678;9.856;2023-07-20T14:04:39;2.67;;;1.05;;
52838;SDS011;39219;53.678;9.856;2023-07-20T14:07:06;2.35;;;0.90;;
52838;SDS011;39219;53.678;9.856;2023-07-20T14:09:32;3.15;;;1.13;;
52838;SDS011;39219;53.678;9.856;2023-07-20T14:11:59;4.10;;;1.20;;
52838;SDS011;39219;53.678;9.856;2023-07-20T14:14:25;2.00;;;1.00;;
52838;SDS011;39219;53.678;9.856;2023-07-20T14:16:51;2.38;;;0.85;;
52838;SDS011;39219;53.678;9.856;2023-07-20T14:19:17;2.60;;;0.95;;
52838;SDS011;39219;53.678;9.856;2023-07-20T14:21:45;3.05;;;1.20;;
52838;SDS011;39219;53.678;9.856;2023-07-20T14:24:11;3.47;;;1.10;;
52838;SDS011;39219;53.678;9.856;2023-07-20T14:26:38;3.50;;;1.15;;
52838;SDS011;39219;53.678;9.856;2023-07-20T14:29:04;2.88;;;1.00;;
52838;SDS011;39219;53.678;9.856;2023-07-20T14:31:30;5.47;;;1.20;;
52838;SDS011;39219;53.678;9.856;2023-07-20T14:33:57;4.10;;;1.27;;
52838;SDS011;39219;53.678;9.856;2023-07-20T14:36:23;2.95;;;1.00;;
52838;SDS011;39219;53.678;9.856;2023-07-20T14:38:50;4.38;;;1.10;;
52838;SDS011;39219;53.678;9.856;2023-07-20T14:41:17;6.25;;;1.38;;
52838;SDS011;39219;53.678;9.856;2023-07-20T14:43:43;3.22;;;1.17;;
52838;SDS011;39219;53.678;9.856;2023-07-20T14:46:09;3.40;;;1.27;;
52838;SDS011;39219;53.678;9.856;2023-07-20T14:48:36;2.03;;;0.98;;
52838;SDS011;39219;53.678;9.856;2023-07-20T14:51:02;6.68;;;1.35;;